Time;durP1;ratioP1;P1;durP2;ratioP2;P2;SDS_P1;SDS_P2;PMS_P1;PMS_P2;Temp;Humidity;BMP_temperature;BMP_pressure;BME280_temperature;BME280_humidity;BME280_pressure;Samples;Min_cycle;Max_cycle;Signal;HPM_P1;HPM_P2
2022/01/05 00:01:13;;;;;;;5.35;0.28;;;;;;;5.74;71.73;100325.50;7395230;19;20484;-65
2022/01/05 00:03:40;;;;;;;0.90;0.13;;;;;;;5.74;71.84;100325.50;7393820;19;20010;-67
2022/01/05 00:06:08;;;;;;;3.55;0.40;;;;;;;5.74;72.11;100328.91;7392942;19;20074;-66
2022/01/05 00:08:35;;;;;;;6.43;0.45;;;;;;;5.72;71.63;100325.63;7389941;19;20023;-66
2022/01/05 00:11:02;;;;;;;1.75;0.40;;;;;;;5.72;71.79;100317.78;7392516;19;20143;-67
2022/01/05 00:13:30;;;;;;;1.85;0.47;;;;;;;5.74;72.46;100313.25;7391056;19;20315;-66
2022/01/05 00:15:57;;;;;;;4.32;0.25;;;;;;;5.70;72.70;100311.88;7392760;19;20006;-66
2022/01/05 00:18:24;;;;;;;5.22;0.50;;;;;;;5.71;72.83;100308.31;7391474;19;20519;-66
2022/01/05 00:20:52;;;;;;;5.85;0.43;;;;;;;5.69;72.32;100305.00;7389485;19;20347;-68
2022/01/05 00:23:19;;;;;;;3.72;0.50;;;;;;;5.67;72.31;100312.16;7395462;19;20030;-67
2022/01/05 00:25:46;;;;;;;2.28;0.20;;;;;;;5.66;71.77;100320.09;7391006;19;20726;-67
2022/01/05 00:28:13;;;;;;;3.33;0.20;;;;;;;5.65;72.08;100310.63;7390766;19;20020;-65
2022/01/05 00:30:41;;;;;;;7.30;0.50;;;;;;;5.66;72.05;100301.84;7388075;19;20020;-65
2022/01/05 00:33:08;;;;;;;3.55;0.32;;;;;;;5.67;72.29;100309.53;7393286;19;20038;-67
2022/01/05 00:35:35;;;;;;;5.97;0.50;;;;;;;5.64;71.75;100304.56;7387039;19;20503;-65
2022/01/05 00:38:02;;;;;;;3.30;0.30;;;;;;;5.63;71.64;100300.34;7391100;19;20155;-67
2022/01/05 00:40:30;;;;;;;3.80;0.35;;;;;;;5.64;72.39;100309.00;7389487;19;20014;-65
2022/01/05 00:43:00;;;;;;;4.85;0.30;;;;;;;5.64;71.98;100317.63;7388696;19;20022;-67
2022/01/05 00:45:27;;;;;;;3.63;0.30;;;;;;;5.63;73.18;100315.16;7389484;19;20018;-65
2022/01/05 00:47:55;;;;;;;1.73;0.20;;;;;;;5.62;72.41;100326.56;7390374;19;20519;-66
2022/01/05 00:50:22;;;;;;;1.55;0.20;;;;;;;5.60;71.77;100321.47;7392572;19;20002;-67
2022/01/05 00:52:49;;;;;;;3.28;0.30;;;;;;;5.59;71.77;100322.41;7388235;19;20605;-66
2022/01/05 00:55:16;;;;;;;3.72;0.30;;;;;;;5.58;71.83;100323.41;7387873;19;20362;-65
2022/01/05 00:57:45;;;;;;;2.90;0.40;;;;;;;5.58;71.85;100321.63;7388153;19;20353;-66
2022/01/05 01:00:13;;;;;;;7.18;0.30;;;;;;;5.57;71.97;100316.53;7393330;19;20413;-67
2022/01/05 01:02:40;;;;;;;3.50;0.35;;;;;;;5.60;72.00;100316.25;7388445;19;20010;-65
2022/01/05 01:05:08;;;;;;;7.15;0.30;;;;;;;5.57;72.33;100325.19;7394063;19;20038;-67
2022/01/05 01:07:35;;;;;;;3.08;0.35;;;;;;;5.57;71.93;100338.22;7387441;19;20035;-66
2022/01/05 01:10:04;;;;;;;5.28;0.30;;;;;;;5.55;71.22;100334.91;7388668;19;20016;-66
2022/01/05 01:12:32;;;;;;;5.35;0.50;;;;;;;5.56;71.51;100331.34;7391218;19;20023;-67
2022/01/05 01:15:01;;;;;;;4.88;0.30;;;;;;;5.56;71.77;100331.34;7390437;19;20689;-67
2022/01/05 01:17:28;;;;;;;3.97;0.40;;;;;;;5.57;71.52;100332.19;7385517;19;20018;-67
2022/01/05 01:19:55;;;;;;;4.35;0.10;;;;;;;5.57;71.33;100334.78;7389241;19;20038;-67
2022/01/05 01:22:23;;;;;;;6.32;0.30;;;;;;;5.57;71.22;100332.19;7389817;19;20082;-65
2022/01/05 01:24:50;;;;;;;12.50;0.40;;;;;;;5.58;71.59;100337.28;7386662;19;20010;-65
2022/01/05 01:27:17;;;;;;;8.55;0.30;;;;;;;5.56;70.58;100338.34;7387297;19;20361;-65
2022/01/05 01:29:45;;;;;;;2.55;0.20;;;;;;;5.53;71.49;100333.41;7388064;19;20006;-67
2022/01/05 01:32:12;;;;;;;6.97;0.30;;;;;;;5.52;71.35;100326.53;7388127;19;20666;-66
2022/01/05 01:34:39;;;;;;;4.78;0.30;;;;;;;5.53;71.46;100330.81;7387036;19;20472;-66
2022/01/05 01:37:07;;;;;;;3.90;0.47;;;;;;;5.53;71.39;100338.63;7388989;19;20007;-65
2022/01/05 01:39:34;;;;;;;7.07;0.40;;;;;;;5.49;71.18;100350.25;7389535;19;20028;-65
2022/01/05 01:42:02;;;;;;;5.07;0.30;;;;;;;5.51;72.41;100353.56;7391717;19;20007;-65
2022/01/05 01:44:30;;;;;;;3.80;0.30;;;;;;;5.50;72.22;100351.91;7388350;19;20007;-65
2022/01/05 01:46:57;;;;;;;2.30;0.22;;;;;;;5.48;71.64;100352.06;7392134;19;20448;-65
2022/01/05 01:49:25;;;;;;;8.95;0.30;;;;;;;5.49;73.02;100345.03;7395094;19;20034;-66
2022/01/05 01:51:52;;;;;;;7.63;0.80;;;;;;;5.47;71.55;100350.41;7393075;19;20011;-66
2022/01/05 01:54:19;;;;;;;5.63;0.40;;;;;;;5.45;70.88;100354.91;7398526;19;20087;-65
2022/01/05 01:56:48;;;;;;;5.03;0.45;;;;;;;5.42;70.65;100359.59;7394153;19;20015;-65
2022/01/05 01:59:15;;;;;;;3.70;0.22;;;;;;;5.40;71.06;100356.28;7397687;19;20015;-65
2022/01/05 02:01:45;;;;;;;3.72;0.57;;;;;;;5.38;71.63;100363.41;7393962;19;20666;-65
2022/01/05 02:04:15;;;;;;;5.13;0.32;;;;;;;5.35;71.66;100361.88;7393722;19;20017;-65
2022/01/05 02:06:43;;;;;;;5.25;0.30;;;;;;;5.31;72.90;100365.72;7394552;19;20455;-65
2022/01/05 02:09:10;;;;;;;3.63;0.40;;;;;;;5.32;73.01;100375.19;7394271;19;20014;-66
2022/01/05 02:11:39;;;;;;;2.70;0.20;;;;;;;5.32;71.79;100372.59;7395064;19;20025;-65
2022/01/05 02:14:07;;;;;;;4.07;0.63;;;;;;;5.33;72.22;100374.25;7397972;19;20018;-64
2022/01/05 02:16:38;;;;;;;5.30;0.30;;;;;;;5.36;72.27;100376.59;7393518;19;20090;-66
2022/01/05 02:19:06;;;;;;;4.13;0.35;;;;;;;5.37;71.45;100388.66;7396755;19;20017;-66
2022/01/05 02:21:36;;;;;;;4.78;0.40;;;;;;;5.37;71.68;100383.47;7393254;19;20023;-65
2022/01/05 02:24:06;;;;;;;3.47;0.20;;;;;;;5.39;71.68;100394.56;7393775;19;20010;-66
2022/01/05 02:26:35;;;;;;;8.60;0.40;;;;;;;5.40;72.00;100387.56;7391944;19;20010;-67
2022/01/05 02:29:04;;;;;;;3.80;0.30;;;;;;;5.42;72.58;100386.50;7395445;19;20015;-66
2022/01/05 02:31:31;;;;;;;2.45;0.25;;;;;;;5.44;72.82;100384.56;7397051;19;20019;-66
2022/01/05 02:34:00;;;;;;;5.57;0.30;;;;;;;5.45;73.19;100383.63;7396559;19;20044;-66
2022/01/05 02:36:27;;;;;;;7.43;0.30;;;;;;;5.47;72.14;100386.94;7395361;19;20126;-66
2022/01/05 02:38:55;;;;;;;4.50;0.30;;;;;;;5.50;72.97;100385.84;7394412;19;20031;-65
2022/01/05 02:41:22;;;;;;;3.75;0.17;;;;;;;5.48;72.11;100393.81;7394379;19;20014;-66
2022/01/05 02:43:50;;;;;;;6.75;0.30;;;;;;;5.47;71.33;100386.09;7392908;19;20007;-66
2022/01/05 02:46:20;;;;;;;7.22;0.30;;;;;;;5.49;72.67;100389.38;7395413;19;20040;-65
2022/01/05 02:48:51;;;;;;;4.00;0.20;;;;;;;5.47;71.40;100393.94;7395177;19;20467;-67
2022/01/05 02:51:19;;;;;;;6.70;0.25;;;;;;;5.45;71.40;100398.44;7390751;19;20118;-65
2022/01/05 02:53:47;;;;;;;5.10;0.60;;;;;;;5.41;71.60;100386.63;7392587;19;20010;-65
2022/01/05 02:56:15;;;;;;;5.05;0.45;;;;;;;5.33;71.84;100397.72;7391948;19;20024;-65
2022/01/05 02:58:42;;;;;;;4.07;0.30;;;;;;;5.34;73.52;100401.13;7395141;19;20034;-66
2022/01/05 03:01:09;;;;;;;4.90;0.25;;;;;;;5.35;72.42;100394.97;7392631;19;20542;-66
2022/01/05 03:03:37;;;;;;;3.17;0.20;;;;;;;5.33;72.88;100392.50;7395782;19;20015;-64
2022/01/05 03:06:05;;;;;;;4.15;1.25;;;;;;;5.33;73.05;100397.72;7391691;19;20349;-65
2022/01/05 03:08:32;;;;;;;6.55;0.73;;;;;;;5.34;73.10;100404.56;7390353;19;20520;-66
2022/01/05 03:10:59;;;;;;;6.63;0.20;;;;;;;5.35;73.33;100402.78;7392395;19;20014;-66
2022/01/05 03:13:27;;;;;;;4.40;0.20;;;;;;;5.35;72.42;100406.22;7393751;19;20011;-65
2022/01/05 03:15:55;;;;;;;3.90;0.30;;;;;;;5.33;72.57;100397.72;7391563;19;20447;-65
2022/01/05 03:18:22;;;;;;;2.60;0.10;;;;;;;5.35;73.10;100402.78;7391618;19;20014;-66
2022/01/05 03:20:50;;;;;;;3.65;0.30;;;;;;;5.34;72.42;100403.72;7393885;19;20010;-65
2022/01/05 03:23:17;;;;;;;2.78;0.20;;;;;;;5.33;72.73;100405.53;7394629;19;20006;-65
2022/01/05 03:25:45;;;;;;;6.55;0.30;;;;;;;5.31;72.37;100410.06;7395854;19;20019;-66
2022/01/05 03:28:12;;;;;;;4.63;0.22;;;;;;;5.30;72.49;100415.38;7390644;19;20011;-66
2022/01/05 03:30:40;;;;;;;3.70;0.50;;;;;;;5.27;72.92;100419.09;7389132;19;20014;-66
2022/01/05 03:33:11;;;;;;;5.57;0.28;;;;;;;5.27;72.65;100418.28;7391835;19;20015;-66
2022/01/05 03:35:42;;;;;;;4.88;0.35;;;;;;;5.24;73.03;100421.94;7394595;19;20035;-65
2022/01/05 03:38:10;;;;;;;5.72;0.30;;;;;;;5.26;73.23;100414.81;7393612;19;20030;-66
2022/01/05 03:40:37;;;;;;;5.10;0.25;;;;;;;5.27;72.96;100432.13;7392219;19;20046;-65
2022/01/05 03:43:06;;;;;;;4.75;0.80;;;;;;;5.28;73.34;100431.19;7389795;19;20023;-65
2022/01/05 03:45:36;;;;;;;2.13;0.20;;;;;;;5.27;72.76;100426.91;7391056;19;20006;-66
2022/01/05 03:48:07;;;;;;;5.28;0.28;;;;;;;5.30;72.93;100423.22;7390073;19;20011;-66
2022/01/05 03:50:36;;;;;;;4.82;0.20;;;;;;;5.30;73.08;100418.00;7388499;19;20480;-67
2022/01/05 03:53:04;;;;;;;4.43;0.20;;;;;;;5.30;72.65;100420.59;7394595;19;20110;-66
2022/01/05 03:55:33;;;;;;;5.88;0.55;;;;;;;5.30;72.41;100433.66;7393077;19;20330;-67
2022/01/05 03:58:00;;;;;;;3.22;0.20;;;;;;;5.27;72.49;100437.34;7390395;19;20044;-65
2022/01/05 04:00:29;;;;;;;3.97;0.20;;;;;;;5.27;72.74;100434.75;7389554;19;20468;-67
2022/01/05 04:02:58;;;;;;;5.63;0.65;;;;;;;5.29;73.51;100434.59;7390524;19;20094;-67
2022/01/05 04:05:25;;;;;;;2.42;0.40;;;;;;;5.31;72.93;100430.09;7391403;19;20127;-66
2022/01/05 04:07:53;;;;;;;6.05;0.45;;;;;;;5.32;73.91;100431.75;7391346;19;20007;-66
2022/01/05 04:10:20;;;;;;;4.75;0.30;;;;;;;5.33;73.35;100442.06;7389076;19;20010;-65
2022/01/05 04:12:51;;;;;;;2.70;0.20;;;;;;;5.34;73.46;100437.63;7396897;19;20018;-66
2022/01/05 04:15:21;;;;;;;4.63;0.30;;;;;;;5.34;73.05;100435.03;7389961;19;20082;-65
2022/01/05 04:17:49;;;;;;;5.07;0.55;;;;;;;5.34;72.74;100441.06;7389583;19;20344;-66
2022/01/05 04:20:17;;;;;;;7.03;0.28;;;;;;;5.34;73.53;100453.28;7389673;19;20018;-65
2022/01/05 04:22:44;;;;;;;2.65;0.35;;;;;;;5.32;73.07;100450.00;7390042;19;20030;-66
2022/01/05 04:25:17;;;;;;;4.93;0.75;;;;;;;5.33;72.93;100456.88;7389825;19;20031;-65
2022/01/05 04:27:44;;;;;;;8.13;0.25;;;;;;;5.34;72.21;100454.13;7389809;19;20020;-65
2022/01/05 04:30:12;;;;;;;5.28;0.52;;;;;;;5.36;72.29;100451.38;7390457;19;20010;-65
2022/01/05 04:32:40;;;;;;;4.32;0.30;;;;;;;5.37;72.87;100440.00;7393271;19;20468;-66
2022/01/05 04:35:27;;;;;;;6.63;0.30;;;;;;;5.38;72.15;100450.31;7390519;19;20015;-66
2022/01/05 04:37:54;;;;;;;6.85;0.40;;;;;;;5.39;72.26;100451.13;7393118;19;20034;-66
2022/01/05 04:40:21;;;;;;;3.22;0.28;;;;;;;5.37;72.28;100453.88;7393227;19;20022;-66
2022/01/05 04:42:48;;;;;;;2.70;0.20;;;;;;;5.37;71.62;100461.69;7393205;19;20674;-67
2022/01/05 04:45:16;;;;;;;3.10;0.13;;;;;;;5.36;72.42;100464.44;7388617;19;20066;-66
2022/01/05 04:47:43;;;;;;;3.90;0.43;;;;;;;5.34;72.08;100459.34;7390114;19;20006;-66
2022/01/05 04:50:14;;;;;;;6.05;0.40;;;;;;;5.34;72.57;100461.94;7391149;19;20494;-66
2022/01/05 04:52:42;;;;;;;3.95;0.30;;;;;;;5.34;71.79;100468.94;7389417;19;20162;-65
2022/01/05 04:55:10;;;;;;;3.25;0.30;;;;;;;5.34;71.64;100474.97;7387189;19;20126;-64
2022/01/05 04:57:38;;;;;;;3.40;0.20;;;;;;;5.33;71.76;100483.78;7390996;19;20006;-66
2022/01/05 05:00:06;;;;;;;10.13;0.52;;;;;;;5.32;71.23;100476.91;7388372;19;20042;-66
2022/01/05 05:02:33;;;;;;;3.42;0.35;;;;;;;5.33;72.39;100475.97;7388453;19;20074;-67
2022/01/05 05:05:01;;;;;;;4.15;0.38;;;;;;;5.35;72.61;100478.41;7388173;19;20015;-66
2022/01/05 05:07:28;;;;;;;9.43;0.22;;;;;;;5.36;72.09;100486.13;7392859;19;20023;-65
2022/01/05 05:09:55;;;;;;;2.35;0.20;;;;;;;5.39;72.12;100482.41;7390212;19;20010;-66
2022/01/05 05:12:22;;;;;;;4.97;0.45;;;;;;;5.36;71.89;100488.72;7390765;19;20013;-67
2022/01/05 05:14:50;;;;;;;6.82;0.40;;;;;;;5.38;72.80;100486.00;7386895;19;20445;-64
2022/01/05 05:17:17;;;;;;;6.82;0.25;;;;;;;5.41;73.59;100489.19;7389492;19;20112;-67
2022/01/05 05:19:44;;;;;;;3.47;0.65;;;;;;;5.41;73.60;100494.41;7387129;19;20440;-67
2022/01/05 05:22:12;;;;;;;6.00;0.50;;;;;;;5.47;73.36;100500.88;7387224;19;20014;-66
2022/01/05 05:24:39;;;;;;;5.10;0.32;;;;;;;5.49;72.59;100497.19;7388768;19;20492;-66
2022/01/05 05:27:06;;;;;;;5.63;0.30;;;;;;;5.47;72.81;100506.94;7387806;19;20576;-65
2022/01/05 05:29:33;;;;;;;10.65;0.60;;;;;;;5.48;73.27;100510.38;7388077;19;20014;-66
2022/01/05 05:32:01;;;;;;;4.38;0.43;;;;;;;5.50;73.21;100517.09;7387110;19;20027;-65
2022/01/05 05:34:28;;;;;;;4.13;0.70;;;;;;;5.53;73.69;100518.63;7387555;19;20011;-65
2022/01/05 05:36:55;;;;;;;3.13;0.20;;;;;;;5.54;73.17;100512.44;7388427;19;20531;-65
2022/01/05 05:39:22;;;;;;;7.93;0.65;;;;;;;5.58;73.63;100517.31;7386918;19;20453;-66
2022/01/05 05:41:49;;;;;;;7.80;0.80;;;;;;;5.56;72.98;100520.97;7390459;19;20018;-67
2022/01/05 05:44:17;;;;;;;7.10;0.40;;;;;;;5.55;72.39;100521.94;7387792;19;20070;-68
2022/01/05 05:46:44;;;;;;;6.78;0.70;;;;;;;5.55;72.37;100541.03;7385596;19;20466;-65
2022/01/05 05:49:11;;;;;;;4.95;0.50;;;;;;;5.57;72.96;100535.69;7386475;19;20002;-66
2022/01/05 05:51:38;;;;;;;3.80;0.40;;;;;;;5.59;73.00;100539.81;7386245;19;20399;-66
2022/01/05 05:54:05;;;;;;;4.38;0.35;;;;;;;5.61;72.77;100539.69;7392984;19;20015;-66
2022/01/05 05:56:32;;;;;;;2.40;0.25;;;;;;;5.59;72.92;100550.25;7386667;19;20021;-64
2022/01/05 05:59:00;;;;;;;4.80;0.30;;;;;;;5.59;73.06;100545.03;7390471;19;20500;-66
2022/01/05 06:01:28;;;;;;;5.93;0.50;;;;;;;5.57;72.88;100544.34;7385910;19;20066;-65
2022/01/05 06:03:56;;;;;;;8.30;0.40;;;;;;;5.58;73.40;100550.41;7386149;19;20018;-66
2022/01/05 06:06:23;;;;;;;10.68;0.38;;;;;;;5.59;73.89;100554.63;7386645;19;20119;-65
2022/01/05 06:08:50;;;;;;;1.95;0.60;;;;;;;5.59;73.34;100552.03;7386257;19;20090;-67
2022/01/05 06:11:17;;;;;;;9.98;0.50;;;;;;;5.61;73.91;100557.97;7389150;19;20360;-66
2022/01/05 06:13:44;;;;;;;5.32;0.30;;;;;;;5.62;73.20;100564.00;7392313;19;20421;-66
2022/01/05 06:16:12;;;;;;;3.13;0.30;;;;;;;5.61;72.68;100571.00;7389973;19;20024;-68
2022/01/05 06:18:40;;;;;;;9.52;0.32;;;;;;;5.58;72.94;100559.06;7386165;19;20010;-67
2022/01/05 06:21:07;;;;;;;2.63;0.20;;;;;;;5.59;73.08;100570.28;7385987;19;20074;-65
2022/01/05 06:23:34;;;;;;;6.03;0.82;;;;;;;5.59;73.54;100570.28;7385067;19;20082;-65
2022/01/05 06:26:01;;;;;;;8.43;0.68;;;;;;;5.62;73.73;100574.44;7386525;19;20081;-67
2022/01/05 06:28:30;;;;;;;4.15;0.55;;;;;;;5.59;73.50;100583.34;7391968;19;20496;-66
2022/01/05 06:30:57;;;;;;;3.35;0.20;;;;;;;5.59;73.50;100585.94;7384558;19;20431;-66
2022/01/05 06:33:24;;;;;;;3.40;0.35;;;;;;;5.58;73.69;100582.53;7390673;19;20010;-66
2022/01/05 06:35:52;;;;;;;4.90;0.55;;;;;;;5.61;74.16;100584.06;7390686;19;20035;-66
2022/01/05 06:38:19;;;;;;;4.50;0.40;;;;;;;5.58;73.55;100584.31;7399156;19;20536;-66
2022/01/05 06:40:46;;;;;;;5.00;0.20;;;;;;;5.59;74.34;100583.34;7393214;19;20006;-66
2022/01/05 06:43:14;;;;;;;6.10;0.38;;;;;;;5.53;74.46;100574.25;7397443;19;20006;-66
2022/01/05 06:45:41;;;;;;;4.47;0.30;;;;;;;5.53;74.02;100583.88;7392526;19;20546;-66
2022/01/05 06:48:08;;;;;;;7.28;0.40;;;;;;;5.53;74.45;100597.75;7391765;19;20034;-65
2022/01/05 06:50:36;;;;;;;8.63;0.38;;;;;;;5.53;74.43;100596.91;7391371;19;20359;-66
2022/01/05 06:53:03;;;;;;;5.22;0.30;;;;;;;5.52;74.36;100598.69;7393913;19;20018;-66
2022/01/05 06:55:50;;;;;;;8.65;0.30;;;;;;;5.53;75.49;100607.34;7393687;19;20657;-66
2022/01/05 06:58:17;;;;;;;6.75;0.60;;;;;;;5.54;74.73;100603.75;7396139;19;20086;-67
2022/01/05 07:00:45;;;;;;;4.13;0.25;;;;;;;5.56;74.93;100614.91;7393498;19;20006;-66
2022/01/05 07:03:12;;;;;;;8.02;0.40;;;;;;;5.55;73.88;100608.88;7393132;19;20353;-66
2022/01/05 07:05:41;;;;;;;2.50;0.30;;;;;;;5.58;76.32;100624.28;7392383;19;20097;-67
2022/01/05 07:08:08;;;;;;;3.25;0.20;;;;;;;5.59;75.61;100625.91;7395424;19;20042;-66
2022/01/05 07:10:35;;;;;;;7.57;0.60;;;;;;;5.60;75.02;100618.91;7393814;19;20015;-66
2022/01/05 07:13:02;;;;;;;7.38;0.47;;;;;;;5.58;75.23;100626.06;7394465;19;20086;-66
2022/01/05 07:15:29;;;;;;;7.35;0.57;;;;;;;5.57;74.67;100627.84;7392860;19;20035;-66
2022/01/05 07:17:57;;;;;;;4.53;0.52;;;;;;;5.55;74.46;100637.56;7391593;19;20036;-66
2022/01/05 07:20:25;;;;;;;7.50;0.57;;;;;;;5.57;74.82;100637.44;7391863;19;20351;-68
2022/01/05 07:22:53;;;;;;;1.58;0.30;;;;;;;5.58;74.69;100645.16;7396559;19;20037;-67
2022/01/05 07:25:20;;;;;;;3.35;0.40;;;;;;;5.57;74.62;100642.66;7392938;19;20309;-66
2022/01/05 07:27:50;;;;;;;4.60;0.40;;;;;;;5.57;74.33;100650.50;7395097;19;20016;-67
2022/01/05 07:30:20;;;;;;;5.88;0.47;;;;;;;5.57;73.86;100647.88;7392691;19;20013;-67
2022/01/05 07:32:48;;;;;;;4.32;0.43;;;;;;;5.58;73.48;100659.97;7396672;19;20046;-65
2022/01/05 07:35:15;;;;;;;3.20;0.30;;;;;;;5.58;73.88;100657.38;7389538;19;20070;-66
2022/01/05 07:37:42;;;;;;;4.40;0.30;;;;;;;5.58;73.47;100665.19;7394181;19;20029;-67
2022/01/05 07:40:10;;;;;;;3.80;0.57;;;;;;;5.57;73.29;100663.53;7390218;19;20368;-65
2022/01/05 07:42:38;;;;;;;5.35;0.45;;;;;;;5.59;73.78;100683.31;7393868;19;20027;-65
2022/01/05 07:45:07;;;;;;;3.55;0.30;;;;;;;5.58;74.66;100686.91;7389962;19;20098;-66
2022/01/05 07:47:35;;;;;;;4.00;0.13;;;;;;;5.58;74.88;100684.31;7391995;19;20022;-66
2022/01/05 07:50:04;;;;;;;5.85;0.30;;;;;;;5.55;74.29;100681.91;7392872;19;20011;-65
2022/01/05 07:52:31;;;;;;;7.68;0.50;;;;;;;5.57;74.47;100694.84;7392843;19;20011;-65
2022/01/05 07:55:01;;;;;;;4.55;0.32;;;;;;;5.58;74.39;100686.91;7395484;19;20035;-66
2022/01/05 07:57:28;;;;;;;6.78;0.45;;;;;;;5.55;73.51;100697.56;7393630;19;20011;-67
2022/01/05 07:59:55;;;;;;;2.90;0.52;;;;;;;5.51;74.46;100698.78;7390771;19;20098;-69
2022/01/05 08:02:23;;;;;;;5.47;0.75;;;;;;;5.52;74.67;100708.28;7391814;19;20105;-66
2022/01/05 08:04:50;;;;;;;6.75;0.68;;;;;;;5.56;75.22;100711.44;7389729;19;20002;-65
2022/01/05 08:07:17;;;;;;;4.40;0.30;;;;;;;5.56;74.39;100719.28;7390768;19;20062;-67
2022/01/05 08:09:44;;;;;;;5.90;0.73;;;;;;;5.55;74.35;100720.22;7390274;19;20015;-67
2022/01/05 08:12:11;;;;;;;8.93;0.57;;;;;;;5.54;74.58;100726.38;7390448;19;20009;-66
2022/01/05 08:14:38;;;;;;;5.70;0.40;;;;;;;5.55;74.25;100734.09;7391314;19;20368;-65
2022/01/05 08:17:06;;;;;;;6.88;0.40;;;;;;;5.58;74.79;100733.03;7386938;19;20070;-66
2022/01/05 08:19:33;;;;;;;3.28;0.35;;;;;;;5.63;74.67;100743.94;7390501;19;20078;-65
2022/01/05 08:22:00;;;;;;;5.43;0.60;;;;;;;5.66;74.78;100740.25;7388878;19;20585;-67
2022/01/05 08:24:27;;;;;;;4.10;0.32;;;;;;;5.67;75.02;100740.13;7391528;19;20077;-66
2022/01/05 08:26:54;;;;;;;9.50;0.68;;;;;;;5.67;74.31;100750.56;7393831;19;20044;-67
2022/01/05 08:29:23;;;;;;;5.07;0.40;;;;;;;5.67;74.14;100755.78;7388229;19;20010;-67
2022/01/05 08:31:50;;;;;;;6.43;0.50;;;;;;;5.67;74.51;100749.75;7391801;19;20354;-65
2022/01/05 08:34:17;;;;;;;18.45;9.93;;;;;;;5.67;74.22;100752.34;7389576;19;20010;-67
2022/01/05 08:36:45;;;;;;;5.05;0.82;;;;;;;5.65;74.41;100759.47;7391487;19;20444;-66
2022/01/05 08:39:12;;;;;;;4.38;0.38;;;;;;;5.65;74.24;100762.06;7388709;19;20011;-67
2022/01/05 08:41:42;;;;;;;5.82;0.60;;;;;;;5.65;74.31;100775.13;7389280;19;20440;-66
2022/01/05 08:44:11;;;;;;;4.05;0.50;;;;;;;5.66;74.66;100771.56;7393383;19;20033;-66
2022/01/05 08:46:38;;;;;;;4.85;0.40;;;;;;;5.66;74.69;100769.78;7387241;19;20478;-66
2022/01/05 08:49:05;;;;;;;5.32;0.80;;;;;;;5.66;73.95;100776.78;7390605;19;20014;-65
2022/01/05 08:51:33;;;;;;;4.07;0.55;;;;;;;5.66;74.05;100785.44;7386712;19;20085;-65
2022/01/05 08:54:00;;;;;;;3.45;0.50;;;;;;;5.70;73.87;100786.00;7391046;19;20103;-66
2022/01/05 08:57:14;;;;;;;7.93;1.02;;;;;;;5.74;75.22;100797.91;7391646;19;20106;-66
2022/01/05 08:59:41;;;;;;;10.50;0.43;;;;;;;5.76;74.39;100809.03;7391807;19;20129;-66
2022/01/05 09:02:08;;;;;;;4.50;0.80;;;;;;;5.78;76.11;100815.78;7391784;19;20027;-66
2022/01/05 09:04:36;;;;;;;4.18;0.32;;;;;;;5.83;75.84;100821.47;7388907;19;20011;-67
2022/01/05 09:07:04;;;;;;;5.60;0.75;;;;;;;5.85;74.25;100824.78;7388192;19;20018;-66
2022/01/05 09:09:31;;;;;;;6.82;0.52;;;;;;;5.89;74.22;100838.47;7392284;19;20023;-66
2022/01/05 09:11:58;;;;;;;5.00;0.70;;;;;;;5.91;73.72;100839.16;7390152;19;20353;-67
2022/01/05 09:14:25;;;;;;;5.18;0.70;;;;;;;5.92;73.68;100833.00;7388471;19;20015;-67
2022/01/05 09:16:53;;;;;;;7.95;0.60;;;;;;;5.92;72.96;100838.22;7389322;19;20019;-66
2022/01/05 09:19:23;;;;;;;7.10;0.45;;;;;;;5.93;73.01;100843.31;7388947;19;20006;-66
2022/01/05 09:21:50;;;;;;;6.30;0.50;;;;;;;5.94;73.59;100842.34;7389856;19;20086;-66
2022/01/05 09:24:39;;;;;;;4.63;0.50;;;;;;;5.97;73.15;100849.13;7387921;19;20030;-66
2022/01/05 09:27:06;;;;;;;6.28;0.60;;;;;;;5.93;73.43;100850.31;7388783;19;20528;-66
2022/01/05 09:29:40;;;;;;;12.10;0.55;;;;;;;5.92;73.74;100862.53;7386227;19;20018;-66
2022/01/05 09:32:09;;;;;;;3.25;0.40;;;;;;;5.92;73.68;100862.53;7391038;19;20010;-67
2022/01/05 09:34:37;;;;;;;6.13;0.60;;;;;;;5.93;74.16;100871.22;7392626;19;20002;-67
2022/01/05 09:37:11;;;;;;;5.10;0.40;;;;;;;5.93;73.13;100874.66;7390825;19;20082;-66
2022/01/05 09:42:09;;;;;;;6.72;0.50;;;;;;;5.98;73.30;100875.13;7389918;19;20018;-66
2022/01/05 09:44:41;;;;;;;4.45;0.50;;;;;;;6.00;72.97;100877.59;7386704;19;20078;-67
2022/01/05 09:47:23;;;;;;;4.40;1.00;;;;;;;6.03;73.13;100889.56;7386220;19;20405;-67
2022/01/05 09:49:57;;;;;;;5.35;0.93;;;;;;;6.06;72.99;100886.72;7388644;19;20341;-66
2022/01/05 09:52:26;;;;;;;5.28;0.50;;;;;;;6.08;73.42;100890.03;7386864;19;20410;-67
2022/01/05 09:54:53;;;;;;;6.93;0.47;;;;;;;6.11;73.03;100887.16;7386348;19;20029;-66
2022/01/05 09:57:21;;;;;;;7.35;0.45;;;;;;;6.13;73.11;100890.50;7386951;19;20462;-66
2022/01/05 09:59:50;;;;;;;7.72;0.50;;;;;;;6.16;72.69;100890.25;7387789;19;20017;-66
2022/01/05 10:02:19;;;;;;;6.55;0.68;;;;;;;6.20;73.67;100891.66;7386306;19;20010;-66
2022/01/05 10:04:46;;;;;;;8.80;0.70;;;;;;;6.20;73.05;100908.16;7385229;19;21102;-66
2022/01/05 10:07:14;;;;;;;4.53;0.52;;;;;;;6.23;73.06;100899.25;7390955;19;20147;-67
2022/01/05 10:09:43;;;;;;;9.68;0.50;;;;;;;6.26;73.10;100907.66;7397330;19;20024;-67
2022/01/05 10:12:13;;;;;;;5.25;0.50;;;;;;;6.30;73.08;100911.69;7397426;19;20002;-67
2022/01/05 10:14:41;;;;;;;5.97;0.73;;;;;;;6.34;73.63;100922.75;7393190;19;20112;-65
2022/01/05 10:17:12;;;;;;;9.77;0.50;;;;;;;6.34;73.25;100920.97;7393514;19;20007;-65
2022/01/05 10:19:40;;;;;;;10.05;1.17;;;;;;;6.37;73.32;100923.31;7396202;19;20014;-66
2022/01/05 10:22:13;;;;;;;7.55;1.52;;;;;;;6.43;73.11;100930.66;7392299;19;20048;-66
2022/01/05 10:24:45;;;;;;;11.93;1.33;;;;;;;6.48;73.04;100937.31;7393973;19;20082;-65
2022/01/05 10:27:17;;;;;;;7.78;1.20;;;;;;;6.48;73.45;100940.75;7393180;19;20007;-66
2022/01/05 10:29:50;;;;;;;9.60;0.75;;;;;;;6.53;74.05;100935.16;7393358;19;20010;-66
2022/01/05 10:32:18;;;;;;;9.52;0.80;;;;;;;6.57;74.32;100940.00;7396024;19;20341;-67
2022/01/05 10:35:01;;;;;;;5.70;0.43;;;;;;;6.61;73.89;100944.03;7391231;19;20022;-67
2022/01/05 10:37:32;;;;;;;9.90;0.60;;;;;;;6.61;72.48;100953.66;7372621;19;20015;-66
2022/01/05 10:40:11;;;;;;;5.38;0.28;;;;;;;6.67;72.53;100966.22;7394079;19;20544;-65
2022/01/05 10:42:39;;;;;;;8.23;0.50;;;;;;;6.69;71.93;100964.31;7396892;19;20015;-66
2022/01/05 10:45:10;;;;;;;7.70;0.55;;;;;;;6.72;72.12;100958.84;7390754;19;20109;-66
2022/01/05 10:47:37;;;;;;;2.88;0.50;;;;;;;6.76;72.85;100955.84;7390857;19;20027;-68
2022/01/05 10:50:06;;;;;;;6.75;0.90;;;;;;;6.80;71.76;100962.50;7392120;19;20006;-67
2022/01/05 10:52:35;;;;;;;10.73;0.70;;;;;;;6.81;71.24;100958.06;7393965;19;20015;-66
2022/01/05 10:55:08;;;;;;;4.80;0.65;;;;;;;6.86;71.52;100969.81;7394632;19;20043;-67
2022/01/05 10:57:36;;;;;;;3.92;0.45;;;;;;;6.92;72.65;100972.91;7392817;19;20031;-66
2022/01/05 11:00:06;;;;;;;7.22;0.60;;;;;;;6.96;71.22;100966.47;7393735;19;20112;-67
2022/01/05 11:02:35;;;;;;;8.20;0.60;;;;;;;7.00;71.45;100967.88;7396038;19;20027;-67
2022/01/05 11:05:06;;;;;;;9.05;0.73;;;;;;;7.05;72.76;100971.78;7394762;19;20092;-67
2022/01/05 11:07:37;;;;;;;6.63;0.65;;;;;;;7.06;71.48;100976.03;7391589;19;20038;-67
2022/01/05 11:10:09;;;;;;;5.78;0.43;;;;;;;7.12;71.30;100972.09;7392475;19;20014;-67
2022/01/05 11:12:40;;;;;;;10.93;0.80;;;;;;;7.17;70.66;100981.22;7394436;19;20373;-66
2022/01/05 11:15:13;;;;;;;8.88;0.57;;;;;;;7.25;70.84;100977.97;7394339;19;20010;-66
2022/01/05 11:17:41;;;;;;;8.10;0.60;;;;;;;7.30;70.40;100984.50;7388283;19;20026;-66
2022/01/05 11:20:10;;;;;;;4.28;0.45;;;;;;;7.37;70.02;100983.94;7391629;19;20573;-67
2022/01/05 11:22:37;;;;;;;9.75;0.75;;;;;;;7.39;69.86;100988.13;7393619;19;20011;-66
2022/01/05 11:25:08;;;;;;;8.02;0.73;;;;;;;7.43;70.27;100981.66;7394416;19;20035;-66
2022/01/05 11:27:35;;;;;;;7.45;0.40;;;;;;;7.48;70.27;100984.72;7395353;19;20023;-67
2022/01/05 11:30:04;;;;;;;13.80;0.50;;;;;;;7.52;69.47;100985.28;7393884;19;20038;-66
2022/01/05 11:32:34;;;;;;;2.92;0.63;;;;;;;7.56;68.83;100982.31;7393641;19;20010;-65
2022/01/05 11:35:07;;;;;;;23.77;6.60;;;;;;;7.59;68.86;100979.41;7391901;19;20030;-65
2022/01/05 11:37:37;;;;;;;13.05;2.47;;;;;;;7.60;68.51;100980.25;7391980;19;20018;-66
2022/01/05 11:40:08;;;;;;;7.78;0.60;;;;;;;7.64;69.49;100992.13;7391506;19;20006;-67
2022/01/05 11:42:38;;;;;;;4.63;0.60;;;;;;;7.61;68.56;100980.13;7394086;19;20014;-66